createdAt,value
2023-04-22T00:01:58.072Z,38.70
2023-04-22T00:04:26.619Z,40.50
2023-04-22T00:06:55.130Z,47.70
2023-04-22T00:09:23.037Z,45.70
2023-04-22T00:11:51.146Z,40.70
2023-04-22T00:14:19.004Z,40.60
2023-04-22T00:16:48.301Z,39.00
2023-04-22T00:19:16.428Z,39.10
2023-04-22T00:21:44.275Z,50.20
2023-04-22T00:24:12.217Z,41.80
2023-04-22T00:26:40.377Z,41.10
2023-04-22T00:29:08.221Z,45.70
2023-04-22T00:31:36.112Z,44.50
2023-04-22T00:34:05.416Z,40.90
2023-04-22T00:36:33.350Z,37.10
2023-04-22T00:39:01.344Z,37.70
2023-04-22T00:41:30.986Z,43.20
2023-04-22T00:43:59.446Z,38.00
2023-04-22T00:46:27.789Z,30.80
2023-04-22T00:48:56.249Z,32.20
2023-04-22T00:51:25.986Z,35.00
2023-04-22T00:53:53.846Z,43.10
2023-04-22T00:56:22.662Z,33.50
2023-04-22T00:58:50.652Z,33.50
2023-04-22T01:01:18.761Z,30.80
2023-04-22T01:03:47.583Z,47.60
2023-04-22T01:06:16.017Z,51.90
2023-04-22T01:08:46.189Z,49.90
2023-04-22T01:11:14.731Z,40.30
2023-04-22T01:13:43.233Z,44.90
2023-04-22T01:16:11.920Z,48.20
2023-04-22T01:18:40.361Z,47.40
2023-04-22T01:21:08.618Z,52.30
2023-04-22T01:23:39.067Z,50.30
2023-04-22T01:26:07.089Z,51.10
2023-04-22T01:28:34.963Z,61.70
2023-04-22T01:31:03.639Z,56.10
2023-04-22T01:33:31.772Z,55.70
2023-04-22T01:35:59.646Z,50.80
2023-04-22T01:38:27.464Z,52.80
2023-04-22T01:40:56.922Z,52.40
2023-04-22T01:43:24.800Z,59.40
2023-04-22T01:45:52.692Z,55.80
2023-04-22T01:48:21.120Z,55.20
2023-04-22T01:50:49.048Z,58.80
2023-04-22T01:53:16.957Z,76.20
2023-04-22T01:55:44.876Z,65.40
2023-04-22T01:58:14.209Z,66.30
2023-04-22T02:00:42.062Z,75.20
2023-04-22T02:03:09.939Z,59.50
2023-04-22T02:05:37.954Z,55.30
2023-04-22T02:08:05.871Z,53.90
2023-04-22T02:10:33.786Z,54.60
2023-04-22T02:13:01.617Z,55.70
2023-04-22T02:15:31.088Z,53.80
2023-04-22T02:17:59.073Z,58.50
2023-04-22T02:20:26.926Z,68.60
2023-04-22T02:22:54.950Z,75.40
2023-04-22T02:25:22.788Z,65.90
2023-04-22T02:27:50.647Z,55.70
2023-04-22T02:30:18.536Z,56.20
2023-04-22T02:32:47.827Z,57.70
2023-04-22T02:35:15.766Z,58.00
2023-04-22T02:37:43.641Z,49.30
2023-04-22T02:40:12.127Z,57.30
2023-04-22T02:42:39.965Z,59.10
2023-04-22T02:45:08.288Z,51.70
2023-04-22T02:47:36.174Z,60.60
2023-04-22T02:50:05.751Z,53.90
2023-04-22T02:52:34.230Z,51.80
2023-04-22T02:55:02.200Z,55.40
2023-04-22T02:57:30.216Z,57.70
2023-04-22T02:59:58.104Z,60.10
2023-04-22T03:02:26.086Z,58.30
2023-04-22T03:04:54.560Z,57.40
2023-04-22T03:07:23.744Z,66.10
2023-04-22T03:09:51.582Z,59.30
2023-04-22T03:12:19.509Z,57.80
2023-04-22T03:14:47.345Z,61.90
2023-04-22T03:17:15.218Z,72.80
2023-04-22T03:19:43.169Z,68.70
2023-04-22T03:22:11.281Z,78.30
2023-04-22T03:24:40.500Z,61.20
2023-04-22T03:27:08.391Z,61.00
2023-04-22T03:29:36.296Z,66.60
2023-04-22T03:32:04.234Z,65.90
2023-04-22T03:34:32.111Z,70.00
2023-04-22T03:37:00.018Z,72.30
2023-04-22T03:39:27.864Z,79.20
2023-04-22T03:41:57.199Z,83.30
2023-04-22T03:44:25.051Z,85.60
2023-04-22T03:46:52.967Z,75.80
2023-04-22T03:49:21.310Z,73.60
2023-04-22T03:51:49.163Z,75.10
2023-04-22T03:54:17.018Z,67.10
2023-04-22T03:56:44.839Z,68.00
2023-04-22T03:59:14.118Z,69.90
2023-04-22T04:01:41.998Z,74.60
2023-04-22T04:04:10.104Z,76.30
2023-04-22T04:06:38.382Z,71.90
2023-04-22T04:09:06.289Z,71.10
2023-04-22T04:11:34.254Z,70.00
2023-04-22T04:14:03.436Z,79.70
2023-04-22T04:16:33.078Z,75.80
2023-04-22T04:19:01.012Z,73.20
2023-04-22T04:21:29.399Z,62.60
2023-04-22T04:23:57.278Z,67.40
2023-04-22T04:26:25.158Z,71.80
2023-04-22T04:28:53.626Z,74.90
2023-04-22T04:31:21.542Z,84.60
2023-04-22T04:33:50.889Z,78.80
2023-04-22T04:36:18.917Z,82.60
2023-04-22T04:38:47.970Z,89.60
2023-04-22T04:41:15.857Z,91.00
2023-04-22T04:43:46.421Z,87.50
2023-04-22T04:46:14.640Z,83.80
2023-04-22T04:48:43.022Z,84.00
2023-04-22T04:51:13.032Z,80.30
2023-04-22T04:53:41.404Z,74.30
2023-04-22T04:56:09.294Z,78.00
2023-04-22T04:58:37.188Z,76.50
2023-04-22T05:01:05.096Z,76.90
2023-04-22T05:03:33.315Z,80.60
2023-04-22T05:06:01.289Z,75.20
2023-04-22T05:08:30.500Z,71.20
2023-04-22T05:10:58.344Z,66.00
2023-04-22T05:13:27.537Z,70.50
2023-04-22T05:15:55.428Z,75.90
2023-04-22T05:18:23.347Z,80.30
2023-04-22T05:20:51.206Z,79.40
2023-04-22T05:23:19.145Z,79.70
2023-04-22T05:25:49.178Z,72.40
2023-04-22T05:28:18.278Z,76.70
2023-04-22T05:30:46.201Z,67.20
2023-04-22T05:33:14.126Z,71.40
2023-04-22T05:35:42.024Z,62.40
2023-04-22T05:38:10.447Z,59.10
2023-04-22T05:40:38.277Z,57.60
2023-04-22T05:43:07.551Z,57.60
2023-04-22T05:45:35.705Z,60.90
2023-04-22T05:48:03.589Z,57.50
2023-04-22T05:50:31.531Z,57.90
2023-04-22T05:52:59.464Z,57.80
2023-04-22T05:55:27.877Z,52.50
2023-04-22T05:57:55.772Z,51.10
2023-04-22T06:00:24.969Z,46.50
2023-04-22T06:02:52.999Z,46.20
2023-04-22T06:05:21.132Z,39.20
2023-04-22T06:07:49.046Z,27.70
2023-04-22T06:10:16.871Z,22.20
2023-04-22T06:12:44.943Z,12.40
2023-04-22T06:15:12.840Z,3.80
2023-04-22T06:17:42.221Z,1.00
2023-04-22T06:20:10.464Z,1.00
2023-04-22T06:22:38.388Z,1.00
2023-04-22T06:25:06.791Z,1.00
2023-04-22T06:27:34.648Z,1.00
2023-04-22T06:30:02.518Z,1.00
2023-04-22T06:32:30.404Z,1.00
2023-04-22T06:34:59.613Z,1.00
2023-04-22T06:37:27.580Z,1.00
2023-04-22T06:39:55.768Z,1.00
2023-04-22T06:42:24.035Z,1.00
2023-04-22T06:44:52.014Z,1.00
2023-04-22T06:47:20.061Z,1.00
2023-04-22T06:49:48.000Z,1.00
2023-04-22T06:52:17.229Z,1.00
2023-04-22T06:54:45.201Z,1.00
2023-04-22T06:57:13.057Z,1.00
2023-04-22T06:59:41.915Z,1.00
2023-04-22T07:02:11.289Z,1.00
2023-04-22T07:04:39.256Z,1.00
2023-04-22T07:07:07.215Z,1.00
2023-04-22T07:09:36.914Z,1.00
2023-04-22T07:12:05.197Z,1.00
2023-04-22T07:14:33.602Z,1.00
2023-04-22T07:17:01.457Z,1.00
2023-04-22T07:19:30.086Z,1.00
2023-04-22T07:21:57.994Z,1.00
2023-04-22T07:24:26.110Z,1.00
2023-04-22T07:26:55.352Z,1.00
2023-04-22T07:29:23.332Z,1.00
2023-04-22T07:31:51.350Z,1.00
2023-04-22T07:34:19.283Z,1.00
2023-04-22T07:36:47.272Z,1.00
2023-04-22T07:39:15.245Z,1.00
2023-04-22T07:41:43.097Z,1.00
2023-04-22T07:44:16.432Z,1.00
2023-04-22T07:46:44.510Z,1.00
2023-04-22T07:49:14.079Z,1.00
2023-04-22T07:51:42.207Z,1.00
2023-04-22T07:54:10.123Z,1.00
2023-04-22T07:56:38.032Z,1.00
2023-04-22T07:59:06.077Z,1.00
2023-04-22T08:01:35.406Z,1.00
2023-04-22T08:04:03.595Z,1.00
2023-04-22T08:06:31.961Z,1.00
2023-04-22T08:08:59.873Z,1.00
2023-04-22T08:11:27.766Z,1.00
2023-04-22T08:13:55.699Z,1.00
2023-04-22T08:16:23.692Z,1.00
2023-04-22T08:18:53.195Z,1.00
2023-04-22T08:21:21.094Z,1.00
2023-04-22T08:23:48.972Z,1.00
2023-04-22T08:26:16.981Z,1.00
2023-04-22T08:28:44.915Z,1.00
2023-04-22T08:31:13.079Z,1.00
2023-04-22T08:33:41.514Z,1.00
2023-04-22T08:36:11.454Z,1.00
2023-04-22T08:38:39.371Z,1.00
2023-04-22T08:41:07.358Z,1.00
2023-04-22T08:43:35.565Z,1.00
2023-04-22T08:46:03.574Z,1.00
2023-04-22T08:48:31.635Z,1.00
2023-04-22T08:50:59.640Z,1.00
2023-04-22T08:53:28.921Z,1.00
2023-04-22T08:55:57.202Z,1.00
2023-04-22T08:58:25.372Z,1.00
2023-04-22T09:00:53.751Z,1.00
2023-04-22T09:03:22.348Z,1.00
2023-04-22T09:05:52.342Z,1.00
2023-04-22T09:08:20.321Z,1.00
2023-04-22T09:10:49.726Z,1.00
2023-04-22T09:13:17.962Z,1.00
2023-04-22T09:15:46.248Z,1.00
2023-04-22T09:18:17.868Z,1.00
2023-04-22T09:20:47.523Z,1.00
2023-04-22T09:23:15.904Z,1.00
2023-04-22T09:25:46.310Z,1.00
2023-04-22T09:28:19.545Z,1.00
2023-04-22T09:30:47.727Z,1.00
2023-04-22T09:33:17.290Z,1.00
2023-04-22T09:35:45.338Z,1.00
2023-04-22T09:38:13.977Z,1.00
2023-04-22T09:40:43.270Z,1.00
2023-04-22T09:43:11.553Z,1.00
2023-04-22T09:45:43.412Z,1.00
2023-04-22T09:48:12.547Z,1.00
2023-04-22T09:50:41.083Z,1.00
2023-04-22T09:53:10.032Z,1.00
2023-04-22T09:55:39.825Z,1.00
2023-04-22T09:58:09.631Z,1.00
2023-04-22T10:00:38.836Z,1.00
2023-04-22T10:03:10.895Z,1.00
2023-04-22T10:05:39.322Z,1.00
2023-04-22T10:08:08.044Z,1.00
2023-04-22T10:10:36.386Z,1.00
2023-04-22T10:13:05.149Z,1.00
2023-04-22T10:15:33.544Z,1.00
2023-04-22T10:18:01.930Z,1.00
2023-04-22T10:20:32.161Z,1.00
2023-04-22T10:23:00.072Z,1.00
2023-04-22T10:25:28.548Z,1.00
2023-04-22T10:27:56.526Z,1.00
2023-04-22T10:30:28.087Z,1.00
2023-04-22T10:32:56.148Z,1.00
2023-04-22T10:35:28.162Z,1.00
2023-04-22T10:37:57.428Z,1.00
2023-04-22T10:40:25.554Z,1.00
2023-04-22T10:42:55.870Z,1.00
2023-04-22T10:45:26.495Z,1.00
2023-04-22T10:47:54.497Z,1.00
2023-04-22T10:50:23.960Z,1.00
2023-04-22T10:52:52.822Z,1.00
2023-04-22T10:55:22.474Z,1.00
2023-04-22T10:57:51.272Z,2.30
2023-04-22T11:00:45.677Z,1.50
2023-04-22T11:03:20.745Z,1.00
2023-04-22T11:05:48.737Z,1.00
2023-04-22T11:08:20.499Z,1.00
2023-04-22T11:10:50.720Z,1.00
2023-04-22T11:13:19.380Z,1.00
2023-04-22T11:15:47.837Z,1.00
2023-04-22T11:18:18.186Z,1.00
2023-04-22T11:20:48.331Z,1.30
2023-04-22T11:23:20.669Z,1.00
2023-04-22T11:25:54.716Z,1.00
2023-04-22T11:28:23.451Z,1.00
2023-04-22T11:30:51.910Z,1.00
2023-04-22T11:33:20.038Z,1.00
2023-04-22T11:35:50.084Z,1.00
2023-04-22T11:38:17.915Z,1.00
2023-04-22T11:40:47.215Z,1.00
2023-04-22T11:43:18.549Z,1.00
2023-04-22T11:45:46.708Z,1.00
2023-04-22T11:48:15.568Z,1.00
2023-04-22T11:50:44.810Z,1.00
2023-04-22T11:53:14.980Z,1.00
2023-04-22T11:55:43.412Z,1.00
2023-04-22T11:58:11.970Z,1.00
2023-04-22T12:00:42.875Z,1.00
2023-04-22T12:03:15.484Z,1.00
2023-04-22T12:05:44.521Z,1.00
2023-04-22T12:08:13.590Z,1.00
2023-04-22T12:10:43.025Z,1.50
2023-04-22T12:13:11.150Z,1.00
2023-04-22T12:15:41.414Z,2.80
2023-04-22T12:18:09.307Z,1.00
2023-04-22T12:20:37.660Z,1.00
2023-04-22T12:23:05.571Z,1.00
2023-04-22T12:25:34.613Z,1.00
2023-04-22T12:28:02.484Z,1.00
2023-04-22T12:30:30.332Z,1.00
2023-04-22T12:32:59.644Z,1.00
2023-04-22T12:35:27.509Z,1.00
2023-04-22T12:37:55.454Z,1.00
2023-04-22T12:40:23.500Z,1.00
2023-04-22T12:42:51.434Z,1.00
2023-04-22T12:45:19.259Z,1.00
2023-04-22T12:47:47.215Z,1.00
2023-04-22T12:50:16.582Z,1.00
2023-04-22T12:52:44.517Z,1.00
2023-04-22T12:55:12.460Z,1.00
2023-04-22T12:57:40.320Z,1.00
2023-04-22T13:00:14.180Z,1.00
2023-04-22T13:02:42.899Z,1.00
2023-04-22T13:05:11.418Z,1.00
2023-04-22T13:07:41.312Z,1.00
2023-04-22T13:10:10.182Z,1.00
2023-04-22T13:12:38.619Z,1.00
2023-04-22T13:15:07.311Z,1.00
2023-04-22T13:17:35.628Z,1.00
2023-04-22T13:20:04.891Z,1.00
2023-04-22T13:22:33.092Z,1.40
2023-04-22T13:25:02.540Z,2.10
2023-04-22T13:27:30.405Z,2.90
2023-04-22T13:29:58.398Z,3.30
2023-04-22T13:32:26.265Z,2.00
2023-04-22T13:34:54.131Z,4.60
2023-04-22T13:37:22.007Z,4.70
2023-04-22T13:39:50.524Z,2.70
2023-04-22T13:42:19.782Z,5.30
2023-04-22T13:44:47.664Z,6.70
2023-04-22T13:47:15.630Z,3.50
2023-04-22T13:49:44.087Z,3.40
2023-04-22T13:52:12.473Z,1.50
2023-04-22T13:54:40.359Z,2.50
2023-04-22T13:57:08.244Z,1.30
2023-04-22T13:59:37.665Z,1.30
2023-04-22T14:02:05.724Z,2.10
2023-04-22T14:04:34.085Z,1.60
2023-04-22T14:07:02.652Z,2.40
2023-04-22T14:09:30.538Z,2.10
2023-04-22T14:11:58.383Z,1.00
2023-04-22T14:14:26.346Z,1.00
2023-04-22T14:16:55.955Z,3.30
2023-04-22T14:19:24.936Z,1.00
2023-04-22T14:21:52.923Z,1.30
2023-04-22T14:24:20.846Z,1.00
2023-04-22T14:26:48.783Z,1.00
2023-04-22T14:29:16.674Z,1.00
2023-04-22T14:31:44.571Z,2.40
2023-04-22T14:34:13.823Z,3.20
2023-04-22T14:36:41.840Z,1.00
2023-04-22T14:39:09.703Z,1.00
2023-04-22T14:41:37.560Z,2.30
2023-04-22T14:44:05.550Z,1.40
2023-04-22T14:46:33.542Z,3.90
2023-04-22T14:49:01.537Z,2.90
2023-04-22T14:51:31.595Z,3.70
2023-04-22T14:53:59.462Z,2.00
2023-04-22T14:56:27.360Z,3.90
2023-04-22T14:58:55.292Z,1.70
2023-04-22T15:01:23.197Z,2.00
2023-04-22T15:03:52.116Z,4.10
2023-04-22T15:06:20.105Z,4.50
2023-04-22T15:08:51.575Z,3.80
2023-04-22T15:11:19.487Z,4.80
2023-04-22T15:13:47.561Z,4.20
2023-04-22T15:16:15.470Z,3.30
2023-04-22T15:18:43.444Z,4.10
2023-04-22T15:21:11.300Z,4.70
2023-04-22T15:23:39.184Z,3.70
2023-04-22T15:26:08.544Z,4.60
2023-04-22T15:28:36.681Z,4.70
2023-04-22T15:31:04.651Z,3.00
2023-04-22T15:33:32.550Z,4.20
2023-04-22T15:36:00.586Z,3.40
2023-04-22T15:38:28.705Z,4.80
2023-04-22T15:40:56.580Z,4.30
2023-04-22T15:43:25.838Z,4.40
2023-04-22T15:45:53.788Z,4.80
2023-04-22T15:48:21.627Z,4.30
2023-04-22T15:50:49.448Z,4.70
2023-04-22T15:53:17.325Z,4.10
2023-04-22T15:55:46.315Z,4.50
2023-04-22T15:58:15.243Z,3.80
2023-04-22T16:00:44.518Z,5.00
2023-04-22T16:03:12.463Z,4.20
2023-04-22T16:05:40.384Z,5.00
2023-04-22T16:08:08.215Z,4.50
2023-04-22T16:10:36.133Z,5.90
2023-04-22T16:13:03.987Z,6.40
2023-04-22T16:15:31.876Z,6.80
2023-04-22T16:18:01.311Z,6.70
2023-04-22T16:20:29.264Z,5.90
2023-04-22T16:22:57.121Z,6.70
2023-04-22T16:25:24.960Z,6.90
2023-04-22T16:27:52.833Z,6.40
2023-04-22T16:30:20.684Z,6.50
2023-04-22T16:32:48.559Z,6.10
2023-04-22T16:35:17.877Z,7.00
2023-04-22T16:37:45.734Z,7.20
2023-04-22T16:40:13.742Z,6.90
2023-04-22T16:42:41.602Z,7.10
2023-04-22T16:45:09.826Z,7.20
2023-04-22T16:47:37.756Z,7.20
2023-04-22T16:50:06.301Z,7.80
2023-04-22T16:52:35.505Z,7.60
2023-04-22T16:55:05.145Z,8.00
2023-04-22T16:57:33.110Z,7.70
2023-04-22T17:00:00.940Z,8.30
2023-04-22T17:02:28.884Z,8.20
2023-04-22T17:04:56.856Z,8.80
2023-04-22T17:07:24.700Z,9.30
2023-04-22T17:09:53.883Z,9.60
2023-04-22T17:12:21.726Z,10.40
2023-04-22T17:14:49.651Z,10.20
2023-04-22T17:17:17.490Z,11.00
2023-04-22T17:19:45.375Z,11.00
2023-04-22T17:22:13.190Z,11.10
2023-04-22T17:24:41.607Z,10.90
2023-04-22T17:27:14.641Z,11.20
2023-04-22T17:29:42.723Z,11.70
2023-04-22T17:32:10.740Z,11.70
2023-04-22T17:34:38.653Z,11.80
2023-04-22T17:37:06.644Z,12.60
2023-04-22T17:39:34.495Z,12.90
2023-04-22T17:42:02.700Z,13.90
2023-04-22T17:44:32.160Z,13.40
2023-04-22T17:47:00.065Z,13.60
2023-04-22T17:49:28.075Z,14.10
2023-04-22T17:51:55.951Z,14.10
2023-04-22T17:54:24.139Z,13.70
2023-04-22T17:56:52.005Z,14.30
2023-04-22T17:59:19.982Z,14.80
2023-04-22T18:01:49.266Z,14.60
2023-04-22T18:04:17.253Z,14.90
2023-04-22T18:06:45.140Z,15.00
2023-04-22T18:09:13.007Z,15.50
2023-04-22T18:11:41.101Z,15.60
2023-04-22T18:14:08.998Z,15.50
2023-04-22T18:16:36.900Z,16.00
2023-04-22T18:19:07.428Z,15.80
2023-04-22T18:21:36.901Z,16.50
2023-04-22T18:24:08.373Z,16.70
2023-04-22T18:26:36.283Z,16.40
2023-04-22T18:29:04.141Z,17.10
2023-04-22T18:31:32.059Z,16.50
2023-04-22T18:33:59.936Z,16.90
2023-04-22T18:36:29.745Z,17.20
2023-04-22T18:38:57.584Z,17.60
2023-04-22T18:41:26.302Z,15.40
2023-04-22T18:43:54.244Z,16.30
2023-04-22T18:46:22.266Z,15.40
2023-04-22T18:48:50.113Z,11.60
2023-04-22T18:51:17.943Z,11.40
2023-04-22T18:53:48.954Z,12.80
2023-04-22T18:56:16.846Z,9.60
2023-04-22T18:58:45.051Z,8.60
2023-04-22T19:01:13.033Z,5.50
2023-04-22T19:03:41.340Z,1.00
2023-04-22T19:06:09.304Z,1.00
2023-04-22T19:08:37.129Z,1.00
2023-04-22T19:11:06.447Z,1.00
2023-04-22T19:13:34.280Z,1.00
2023-04-22T19:16:02.171Z,1.00
2023-04-22T19:18:30.044Z,1.00
2023-04-22T19:20:57.911Z,1.00
2023-04-22T19:23:25.919Z,1.00
2023-04-22T19:25:53.800Z,1.00
2023-04-22T19:28:23.017Z,1.00
2023-04-22T19:30:50.891Z,1.00
2023-04-22T19:33:18.766Z,1.00
2023-04-22T19:35:46.788Z,1.00
2023-04-22T19:38:19.026Z,1.00
2023-04-22T19:40:47.393Z,1.00
2023-04-22T19:43:17.010Z,1.00
2023-04-22T19:45:46.530Z,1.00
2023-04-22T19:48:14.656Z,1.00
2023-04-22T19:50:43.800Z,1.00
2023-04-22T19:53:11.789Z,1.00
2023-04-22T19:55:39.718Z,1.00
2023-04-22T19:58:07.648Z,1.00
2023-04-22T20:00:35.903Z,1.00
2023-04-22T20:03:06.698Z,1.00
2023-04-22T20:05:34.922Z,1.00
2023-04-22T20:08:03.171Z,1.00
2023-04-22T20:10:31.682Z,1.00
2023-04-22T20:12:59.848Z,1.00
2023-04-22T20:15:27.866Z,1.00
2023-04-22T20:17:55.994Z,1.00
2023-04-22T20:20:25.639Z,1.00
2023-04-22T20:22:54.683Z,1.00
2023-04-22T20:25:23.156Z,1.00
2023-04-22T20:27:51.355Z,1.00
2023-04-22T20:30:19.321Z,1.00
2023-04-22T20:32:47.371Z,1.00
2023-04-22T20:35:16.540Z,1.00
2023-04-22T20:37:47.131Z,1.00
2023-04-22T20:40:15.952Z,1.00
2023-04-22T20:42:44.077Z,1.00
2023-04-22T20:45:15.358Z,1.00
2023-04-22T20:47:43.391Z,1.00
2023-04-22T20:50:13.070Z,1.00
2023-04-22T20:52:41.273Z,1.00
2023-04-22T20:55:11.065Z,1.00
2023-04-22T20:57:38.930Z,1.00
2023-04-22T21:00:08.545Z,1.00
2023-04-22T21:02:37.354Z,1.00
2023-04-22T21:05:06.673Z,1.00
2023-04-22T21:07:35.719Z,1.00
2023-04-22T21:10:03.755Z,1.00
2023-04-22T21:12:33.180Z,1.00
2023-04-22T21:15:01.409Z,1.00
2023-04-22T21:17:31.313Z,1.00
2023-04-22T21:19:59.584Z,1.00
2023-04-22T21:22:27.593Z,1.00
2023-04-22T21:24:55.734Z,1.00
2023-04-22T21:27:23.887Z,1.00
2023-04-22T21:29:54.191Z,1.00
2023-04-22T21:32:22.120Z,1.00
2023-04-22T21:34:58.958Z,1.00
2023-04-22T21:37:26.861Z,1.00
2023-04-22T21:39:54.702Z,1.00
2023-04-22T21:42:22.556Z,1.00
2023-04-22T21:44:50.411Z,1.00
2023-04-22T21:47:19.634Z,1.00
2023-04-22T21:49:47.990Z,1.00
2023-04-22T21:52:16.350Z,1.00
2023-04-22T21:54:44.346Z,1.00
2023-04-22T21:57:12.285Z,1.00
2023-04-22T21:59:40.122Z,1.00
2023-04-22T22:02:07.965Z,1.00
2023-04-22T22:04:37.326Z,1.00
2023-04-22T22:07:05.354Z,1.00
2023-04-22T22:09:33.328Z,1.00
2023-04-22T22:12:01.484Z,1.00
2023-04-22T22:14:29.344Z,1.00
2023-04-22T22:16:57.212Z,1.00
2023-04-22T22:19:27.671Z,4.20
2023-04-22T22:21:56.936Z,4.10
2023-04-22T22:24:24.826Z,1.00
2023-04-22T22:26:52.680Z,15.20
2023-04-22T22:29:20.564Z,1.90
2023-04-22T22:31:48.420Z,9.20
2023-04-22T22:34:16.260Z,17.00
2023-04-22T22:36:44.197Z,15.10
2023-04-22T22:39:15.947Z,13.60
2023-04-22T22:41:44.212Z,12.00
2023-04-22T22:44:12.246Z,6.40
2023-04-22T22:46:41.019Z,11.70
2023-04-22T22:49:08.970Z,19.20
2023-04-22T22:51:37.464Z,10.40
2023-04-22T22:54:05.686Z,14.10
2023-04-22T22:56:34.967Z,15.20
2023-04-22T22:59:02.834Z,14.60
2023-04-22T23:01:30.911Z,15.40
2023-04-22T23:03:59.115Z,13.00
2023-04-22T23:06:27.127Z,16.20
2023-04-22T23:08:55.058Z,16.00
2023-04-22T23:11:22.956Z,24.80
2023-04-22T23:13:52.202Z,25.30
2023-04-22T23:16:20.096Z,24.60
2023-04-22T23:18:48.863Z,13.50
2023-04-22T23:21:17.093Z,22.80
2023-04-22T23:23:45.784Z,29.30
2023-04-22T23:26:13.885Z,22.70
2023-04-22T23:28:41.972Z,30.60
2023-04-22T23:31:11.502Z,39.80
2023-04-22T23:33:42.064Z,32.00
2023-04-22T23:36:10.342Z,34.00
2023-04-22T23:38:38.172Z,21.20
2023-04-22T23:41:06.021Z,29.90
2023-04-22T23:43:33.909Z,27.80
2023-04-22T23:46:01.786Z,32.40
2023-04-22T23:48:31.197Z,30.80
2023-04-22T23:50:59.186Z,26.90
2023-04-22T23:53:27.041Z,26.90
2023-04-22T23:55:55.170Z,37.10
2023-04-22T23:58:23.212Z,39.60
